Palacios — WDH7171 — position and weather

sailwx.info

Track history (hours):
 
Tides and Currents Weather Stations Pressure Air Temp Water Temp Dewpoint Dewpoint Depression Visibility Wind Speed Wind Dir Waves Ship Positions

Palacios

Owner: Higman Barge Lines, Inc., Orange, TX. More information available from US FCC via Universal Licensing System and Coast Guard Vessel Documentation Center.

Last reported at 2018-Feb-08 19:30 UTC. Time now 2018-Feb-25 03:52 UTC.
Position N 29°34' W 090°29'.
Warning: this ship's position is 16 days out of date.

Length 26 m; draft 2.7 m.

Type: Towing. MMSI: 367645520.

Date/timePositionNaut miles runAvg speedWind from/ knotsBaromVisibWave heightAir tempDewpointWater temp
2018-Feb-08 19:30N 29°34' W 090°29'3 5.0
2018-Feb-08 19:00N 29°34' W 090°32'4 4.4
2018-Feb-08 18:00N 29°35' W 090°37'5 3.2
2018-Feb-08 16:30N 29°36' W 090°43'2 3.7
2018-Feb-08 16:00N 29°34' W 090°44'3 2.9
2018-Feb-08 15:00N 29°32' W 090°46'3 5.3
2018-Feb-08 14:30N 29°32' W 090°49'3 5.4
2018-Feb-08 14:00N 29°32' W 090°52'61 1.4
2018-Feb-06 18:59N 29°50' W 091°59'3 4.8
2018-Feb-06 18:25N 29°49' W 092°02'1 1.6
2018-Feb-06 17:57N 29°49' W 092°03'1 2.6
2018-Feb-06 17:25N 29°48' W 092°04'1 2.6
2018-Feb-06 16:55N 29°48' W 092°06'2 4.9
2018-Feb-06 16:29N 29°47' W 092°08'2 4.8
2018-Feb-06 16:00N 29°47' W 092°11'0 0.8
2018-Feb-06 15:29N 29°47' W 092°11'0 0.0
2018-Feb-06 14:59N 29°47' W 092°11'0 0.0
2018-Feb-06 14:27N 29°47' W 092°11'0 0.1
2018-Feb-06 13:59N 29°47' W 092°11'0 0.1
2018-Feb-06 13:27N 29°47' W 092°11'1 1.4
2018-Feb-06 12:59N 29°47' W 092°12'3 5.2
2018-Feb-06 12:29N 29°48' W 092°14'3 5.4
2018-Feb-06 11:59N 29°49' W 092°17'  
2018-Feb-03 19:47N 30°04' W 093°21'0 0.0
2018-Feb-03 18:20N 30°04' W 093°21'0 0.0
2018-Feb-03 17:59N 30°04' W 093°21'0 0.0
2018-Feb-03 17:30N 30°04' W 093°21'0 0.0
2018-Feb-03 16:56N 30°04' W 093°21'0 0.0
2018-Feb-03 15:59N 30°04' W 093°21'0 0.0
2018-Feb-03 15:30N 30°04' W 093°21'0 0.0
2018-Feb-03 15:00N 30°04' W 093°21'0 0.0
2018-Feb-03 14:30N 30°04' W 093°21'0 0.0
2018-Feb-03 14:00N 30°04' W 093°21'0 0.0
2018-Feb-03 13:30N 30°04' W 093°21'0 0.0
2018-Feb-03 13:00N 30°04' W 093°21'0 0.0
2018-Feb-03 12:30N 30°04' W 093°21'0 0.0
2018-Feb-03 12:00N 30°04' W 093°21'0 0.0
2018-Feb-03 11:30N 30°04' W 093°21'0 0.0
2018-Feb-03 10:59N 30°04' W 093°21'0 0.0
2018-Feb-03 10:30N 30°04' W 093°21'0 0.0
2018-Feb-03 10:00N 30°04' W 093°21'0 0.0
2018-Feb-03 09:30N 30°04' W 093°21'0 0.0
2018-Feb-03 09:00N 30°04' W 093°21'0 0.0
2018-Feb-03 08:29N 30°04' W 093°21'0 0.0
2018-Feb-03 08:00N 30°04' W 093°21'0 0.0
2018-Feb-03 06:30N 30°04' W 093°21'0 0.0
2018-Feb-03 06:00N 30°04' W 093°21'0 0.3
2018-Feb-03 05:30N 30°04' W 093°21'0 0.1
2018-Feb-03 05:00N 30°04' W 093°21'0 0.1
2018-Feb-03 04:00N 30°04' W 093°21'0 0.0
2018-Feb-03 03:29N 30°04' W 093°21'0 0.0
2018-Feb-03 02:00N 30°04' W 093°21'0 0.0
2018-Feb-03 01:30N 30°04' W 093°21'0 0.0
2018-Feb-03 01:00N 30°04' W 093°21'0 0.0
2018-Feb-03 00:30N 30°04' W 093°21'0 0.0
2018-Feb-03 00:00N 30°04' W 093°21'0 0.0
2018-Feb-02 23:29N 30°04' W 093°21'0 0.0
2018-Feb-02 23:00N 30°04' W 093°21'0 0.0
2018-Feb-02 22:30N 30°04' W 093°21'0 0.0
2018-Feb-02 22:00N 30°04' W 093°21'0 0.0
2018-Feb-02 21:30N 30°04' W 093°21'0 0.0
2018-Feb-02 21:00N 30°04' W 093°21'0 0.0
2018-Feb-02 20:31N 30°04' W 093°21'0 0.0
2018-Feb-02 19:57N 30°04' W 093°21'0 0.0
2018-Feb-02 18:58N 30°04' W 093°21'0 0.0
2018-Feb-02 18:29N 30°04' W 093°21'0 0.0
2018-Feb-02 18:00N 30°04' W 093°21'0 0.0
2018-Feb-02 17:27N 30°04' W 093°21'0 0.0
2018-Feb-02 17:00N 30°04' W 093°21'0 0.0
2018-Feb-02 16:30N 30°04' W 093°21'0 0.0
2018-Feb-02 15:30N 30°04' W 093°21'0 0.0
2018-Feb-02 14:30N 30°04' W 093°21'0 0.0
2018-Feb-02 14:00N 30°04' W 093°21'0 0.0
2018-Feb-02 13:30N 30°04' W 093°21'0 0.0
2018-Feb-02 13:00N 30°04' W 093°21'0 0.0
2018-Feb-02 12:30N 30°04' W 093°21'0 0.0
2018-Feb-02 11:58N 30°04' W 093°21'0 0.0
2018-Feb-02 11:30N 30°04' W 093°21'0 0.0
2018-Feb-02 11:00N 30°04' W 093°21'0 0.0
2018-Feb-02 10:30N 30°04' W 093°21'0 0.0
2018-Feb-02 10:00N 30°04' W 093°21'0 0.0
2018-Feb-02 09:30N 30°04' W 093°21'0 0.0
2018-Feb-02 09:00N 30°04' W 093°21'0 0.0
2018-Feb-02 08:30N 30°04' W 093°21'0 0.0
2018-Feb-02 08:00N 30°04' W 093°21'0 0.0
2018-Feb-02 07:30N 30°04' W 093°21'0 0.0
2018-Feb-02 06:59N 30°04' W 093°21'0 0.0
2018-Feb-02 06:30N 30°04' W 093°21'0 0.0
2018-Feb-02 06:00N 30°04' W 093°21'0 0.0
2018-Feb-02 05:30N 30°04' W 093°21'0 0.0
2018-Feb-02 04:59N 30°04' W 093°21'0 0.0
2018-Feb-02 04:30N 30°04' W 093°21'0 0.1
2018-Feb-02 04:00N 30°04' W 093°21'0 0.0
2018-Feb-02 03:30N 30°04' W 093°21'0 0.0
2018-Feb-02 03:00N 30°04' W 093°21'0 0.0
2018-Feb-02 02:29N 30°04' W 093°21'0 0.0
2018-Feb-02 02:00N 30°04' W 093°21'0 0.0
2018-Feb-02 01:30N 30°04' W 093°21'0 0.0
2018-Feb-02 01:00N 30°04' W 093°21'0 0.0
2018-Feb-02 00:30N 30°04' W 093°21'0 0.0
2018-Feb-02 00:00N 30°04' W 093°21'0 0.0
2018-Feb-01 23:29N 30°04' W 093°21'0 0.0
2018-Feb-01 23:00N 30°04' W 093°21'0 0.0
2018-Feb-01 22:00N 30°04' W 093°21'0 0.0
2018-Feb-01 21:30N 30°04' W 093°21'0 0.0
2018-Feb-01 19:30N 30°04' W 093°21'0 0.0
2018-Feb-01 19:00N 30°04' W 093°21'0 0.0
2018-Feb-01 18:30N 30°04' W 093°21'1 2.2
2018-Feb-01 18:00N 30°05' W 093°20'0 0.0
2018-Feb-01 17:30N 30°05' W 093°20'0 0.0
2018-Feb-01 17:00N 30°05' W 093°20'0 0.0
2018-Feb-01 16:30N 30°05' W 093°20'0 0.0
2018-Feb-01 16:00N 30°05' W 093°20'0 0.0
2018-Feb-01 15:30N 30°05' W 093°20'0 0.0
2018-Feb-01 15:00N 30°05' W 093°20'0 0.0
2018-Feb-01 13:30N 30°05' W 093°20'1 2.2
2018-Feb-01 13:00N 30°04' W 093°21'0 0.0
2018-Feb-01 12:30N 30°04' W 093°21'0 0.0
2018-Feb-01 12:00N 30°04' W 093°21'0 0.0
2018-Feb-01 11:00N 30°04' W 093°21'0 0.0
2018-Feb-01 10:30N 30°04' W 093°21'0 0.0
2018-Feb-01 10:00N 30°04' W 093°21'0 0.0
2018-Feb-01 09:30N 30°04' W 093°21'0 0.0
2018-Feb-01 08:59N 30°04' W 093°21'0 0.0
2018-Feb-01 08:30N 30°04' W 093°21'0 0.0
2018-Feb-01 07:30N 30°04' W 093°21'0 0.0
2018-Feb-01 07:00N 30°04' W 093°21'0 0.0
2018-Feb-01 06:30N 30°04' W 093°21'0 0.0
2018-Feb-01 06:00N 30°04' W 093°21'0 0.0
2018-Feb-01 05:28N 30°04' W 093°21'0 0.0
2018-Feb-01 05:00N 30°04' W 093°21'0 0.0
2018-Feb-01 04:30N 30°04' W 093°21'0 0.0
2018-Feb-01 03:59N 30°04' W 093°21'0 0.0
2018-Feb-01 03:00N 30°04' W 093°21'0 0.0
2018-Feb-01 02:29N 30°04' W 093°21'0 0.0
2018-Feb-01 02:00N 30°04' W 093°21'0 0.0
2018-Feb-01 01:29N 30°04' W 093°21'0 0.0
2018-Feb-01 01:00N 30°04' W 093°21'0 0.0
2018-Feb-01 00:30N 30°04' W 093°21'0 0.0
2018-Feb-01 00:00N 30°04' W 093°21'0 0.0
2018-Jan-31 23:00N 30°04' W 093°21'0 0.0
2018-Jan-31 22:30N 30°04' W 093°21'0 0.0
2018-Jan-31 21:00N 30°04' W 093°21'0 0.0
2018-Jan-31 20:30N 30°04' W 093°21'0 0.0
2018-Jan-31 20:00N 30°04' W 093°21'0 0.0
2018-Jan-31 19:30N 30°04' W 093°21'1 1.5
2018-Jan-31 19:01N 30°05' W 093°20'1 2.5
2018-Jan-31 18:30N 30°06' W 093°19'1 1.9
2018-Jan-31 18:00N 30°05' W 093°20'1 2.0
2018-Jan-31 17:30N 30°04' W 093°21'0 0.4
2018-Jan-31 17:00N 30°04' W 093°20'2 3.5
2018-Jan-31 16:30N 30°06' W 093°19'1 3.0
2018-Jan-31 16:00N 30°05' W 093°20'1 2.1
2018-Jan-31 15:30N 30°05' W 093°20'0 0.9
2018-Jan-31 15:00N 30°06' W 093°19'2 4.1
2018-Jan-31 14:30N 30°04' W 093°21'1 0.8
2018-Jan-31 13:00N 30°04' W 093°22'1 2.3
2018-Jan-31 12:30N 30°04' W 093°23'2 3.3
2018-Jan-31 12:00N 30°04' W 093°25'3 6.3
2018-Jan-31 11:30N 30°04' W 093°29'3 6.1
2018-Jan-31 11:00N 30°04' W 093°32'3 6.5
2018-Jan-31 10:30N 30°04' W 093°36'4 7.1
2018-Jan-31 10:00N 30°03' W 093°40'3 5.7
2018-Jan-31 09:30N 30°03' W 093°44'2 4.9
2018-Jan-31 09:00N 30°01' W 093°45'4 7.6
2018-Jan-31 08:29N 29°59' W 093°49'4 7.6
2018-Jan-31 08:00N 29°56' W 093°52'5 9.5
2018-Jan-31 07:30N 29°53' W 093°55'4 8.2
2018-Jan-31 07:00N 29°49' W 093°58'2 3.7
2018-Jan-31 06:30N 29°48' W 094°00'3 6.4
2018-Jan-31 06:00N 29°46' W 094°03'3 6.8
2018-Jan-31 05:30N 29°44' W 094°06'3 6.5
2018-Jan-31 05:00N 29°42' W 094°09'4 7.1
2018-Jan-31 04:30N 29°41' W 094°12'3 6.2
2018-Jan-31 04:00N 29°39' W 094°16'3 6.8
2018-Jan-31 03:30N 29°38' W 094°19'3 6.0
2018-Jan-31 03:00N 29°36' W 094°22'2 4.3
2018-Jan-31 02:30N 29°36' W 094°25'2 4.4
2018-Jan-31 01:58N 29°34' W 094°26'6 6.6
2018-Jan-31 01:07N 29°31' W 094°32'1 7.8
2018-Jan-31 00:59N 29°30' W 094°33'16 2.9
2018-Jan-30 19:19N 29°29' W 094°52'3 9.0
2018-Jan-30 19:00N 29°31' W 094°53'4 8.8
2018-Jan-30 18:30N 29°35' W 094°56'4 8.8
2018-Jan-30 18:00N 29°39' W 094°58'5 8.7
2018-Jan-30 17:29N 29°43' W 095°01'4 8.3
2018-Jan-30 16:57N 29°46' W 095°05'3 7.1
2018-Jan-30 16:29N 29°44' W 095°08'0 0.0
2018-Jan-30 14:48N 29°44' W 095°08'1 4.3
2018-Jan-30 14:30N 29°44' W 095°07'1 0.2
2018-Jan-30 07:41N 29°46' W 095°06'1 4.0
2018-Jan-30 07:26N 29°45' W 095°06'0 0.4
2018-Jan-30 06:59N 29°45' W 095°07'0 0.0
2018-Jan-30 06:23N 29°45' W 095°07'0 0.0
2018-Jan-30 05:59N 29°45' W 095°07'0 0.0
2018-Jan-30 05:30N 29°45' W 095°07'0 0.0
2018-Jan-30 05:00N 29°45' W 095°07'0 0.0
2018-Jan-30 04:30N 29°45' W 095°07'0 0.0
2018-Jan-30 04:00N 29°45' W 095°07'0 0.0
2018-Jan-30 03:25N 29°45' W 095°07'0 0.0
2018-Jan-30 02:58N 29°45' W 095°07'0 0.0
2018-Jan-30 02:30N 29°45' W 095°07'0 0.0
2018-Jan-30 01:58N 29°45' W 095°07'  
Track history (hours):
 
Tides and Currents Weather Stations Pressure Air Temp Water Temp Dewpoint Dewpoint Depression Visibility Wind Speed Wind Dir Waves Ship Positions

Palacios

Owner: Higman Barge Lines, Inc., Orange, TX. More information available from US FCC via Universal Licensing System and Coast Guard Vessel Documentation Center.

Last reported at 2018-Feb-08 19:30 UTC. Time now 2018-Feb-25 03:52 UTC.
Position N 29°34' W 090°29'.
Warning: this ship's position is 16 days out of date.

Length 26 m; draft 2.7 m.

Type: Towing. MMSI: 367645520.

Date/timePositionNaut miles runAvg speedWind from/ knotsBaromVisibWave heightAir tempDewpointWater temp
2018-Feb-08 19:30N 29°34' W 090°29'3 5.0
2018-Feb-08 19:00N 29°34' W 090°32'4 4.4
2018-Feb-08 18:00N 29°35' W 090°37'5 3.2
2018-Feb-08 16:30N 29°36' W 090°43'2 3.7
2018-Feb-08 16:00N 29°34' W 090°44'3 2.9
2018-Feb-08 15:00N 29°32' W 090°46'3 5.3
2018-Feb-08 14:30N 29°32' W 090°49'3 5.4
2018-Feb-08 14:00N 29°32' W 090°52'61 1.4
2018-Feb-06 18:59N 29°50' W 091°59'3 4.8
2018-Feb-06 18:25N 29°49' W 092°02'1 1.6
2018-Feb-06 17:57N 29°49' W 092°03'1 2.6
2018-Feb-06 17:25N 29°48' W 092°04'1 2.6
2018-Feb-06 16:55N 29°48' W 092°06'2 4.9
2018-Feb-06 16:29N 29°47' W 092°08'2 4.8
2018-Feb-06 16:00N 29°47' W 092°11'0 0.8
2018-Feb-06 15:29N 29°47' W 092°11'0 0.0
2018-Feb-06 14:59N 29°47' W 092°11'0 0.0
2018-Feb-06 14:27N 29°47' W 092°11'0 0.1
2018-Feb-06 13:59N 29°47' W 092°11'0 0.1
2018-Feb-06 13:27N 29°47' W 092°11'1 1.4
2018-Feb-06 12:59N 29°47' W 092°12'3 5.2
2018-Feb-06 12:29N 29°48' W 092°14'3 5.4
2018-Feb-06 11:59N 29°49' W 092°17'  
2018-Feb-03 19:47N 30°04' W 093°21'0 0.0
2018-Feb-03 18:20N 30°04' W 093°21'0 0.0
2018-Feb-03 17:59N 30°04' W 093°21'0 0.0
2018-Feb-03 17:30N 30°04' W 093°21'0 0.0
2018-Feb-03 16:56N 30°04' W 093°21'0 0.0
2018-Feb-03 15:59N 30°04' W 093°21'0 0.0
2018-Feb-03 15:30N 30°04' W 093°21'0 0.0
2018-Feb-03 15:00N 30°04' W 093°21'0 0.0
2018-Feb-03 14:30N 30°04' W 093°21'0 0.0
2018-Feb-03 14:00N 30°04' W 093°21'0 0.0
2018-Feb-03 13:30N 30°04' W 093°21'0 0.0
2018-Feb-03 13:00N 30°04' W 093°21'0 0.0
2018-Feb-03 12:30N 30°04' W 093°21'0 0.0
2018-Feb-03 12:00N 30°04' W 093°21'0 0.0
2018-Feb-03 11:30N 30°04' W 093°21'0 0.0
2018-Feb-03 10:59N 30°04' W 093°21'0 0.0
2018-Feb-03 10:30N 30°04' W 093°21'0 0.0
2018-Feb-03 10:00N 30°04' W 093°21'0 0.0
2018-Feb-03 09:30N 30°04' W 093°21'0 0.0
2018-Feb-03 09:00N 30°04' W 093°21'0 0.0
2018-Feb-03 08:29N 30°04' W 093°21'0 0.0
2018-Feb-03 08:00N 30°04' W 093°21'0 0.0
2018-Feb-03 06:30N 30°04' W 093°21'0 0.0
2018-Feb-03 06:00N 30°04' W 093°21'0 0.3
2018-Feb-03 05:30N 30°04' W 093°21'0 0.1
2018-Feb-03 05:00N 30°04' W 093°21'0 0.1
2018-Feb-03 04:00N 30°04' W 093°21'0 0.0
2018-Feb-03 03:29N 30°04' W 093°21'0 0.0
2018-Feb-03 02:00N 30°04' W 093°21'0 0.0
2018-Feb-03 01:30N 30°04' W 093°21'0 0.0
2018-Feb-03 01:00N 30°04' W 093°21'0 0.0
2018-Feb-03 00:30N 30°04' W 093°21'0 0.0
2018-Feb-03 00:00N 30°04' W 093°21'0 0.0
2018-Feb-02 23:29N 30°04' W 093°21'0 0.0
2018-Feb-02 23:00N 30°04' W 093°21'0 0.0
2018-Feb-02 22:30N 30°04' W 093°21'0 0.0
2018-Feb-02 22:00N 30°04' W 093°21'0 0.0
2018-Feb-02 21:30N 30°04' W 093°21'0 0.0
2018-Feb-02 21:00N 30°04' W 093°21'0 0.0
2018-Feb-02 20:31N 30°04' W 093°21'0 0.0
2018-Feb-02 19:57N 30°04' W 093°21'0 0.0
2018-Feb-02 18:58N 30°04' W 093°21'0 0.0
2018-Feb-02 18:29N 30°04' W 093°21'0 0.0
2018-Feb-02 18:00N 30°04' W 093°21'0 0.0
2018-Feb-02 17:27N 30°04' W 093°21'0 0.0
2018-Feb-02 17:00N 30°04' W 093°21'0 0.0
2018-Feb-02 16:30N 30°04' W 093°21'0 0.0
2018-Feb-02 15:30N 30°04' W 093°21'0 0.0
2018-Feb-02 14:30N 30°04' W 093°21'0 0.0
2018-Feb-02 14:00N 30°04' W 093°21'0 0.0
2018-Feb-02 13:30N 30°04' W 093°21'0 0.0
2018-Feb-02 13:00N 30°04' W 093°21'0 0.0
2018-Feb-02 12:30N 30°04' W 093°21'0 0.0
2018-Feb-02 11:58N 30°04' W 093°21'0 0.0
2018-Feb-02 11:30N 30°04' W 093°21'0 0.0
2018-Feb-02 11:00N 30°04' W 093°21'0 0.0
2018-Feb-02 10:30N 30°04' W 093°21'0 0.0
2018-Feb-02 10:00N 30°04' W 093°21'0 0.0
2018-Feb-02 09:30N 30°04' W 093°21'0 0.0
2018-Feb-02 09:00N 30°04' W 093°21'0 0.0
2018-Feb-02 08:30N 30°04' W 093°21'0 0.0
2018-Feb-02 08:00N 30°04' W 093°21'0 0.0
2018-Feb-02 07:30N 30°04' W 093°21'0 0.0
2018-Feb-02 06:59N 30°04' W 093°21'0 0.0
2018-Feb-02 06:30N 30°04' W 093°21'0 0.0
2018-Feb-02 06:00N 30°04' W 093°21'0 0.0
2018-Feb-02 05:30N 30°04' W 093°21'0 0.0
2018-Feb-02 04:59N 30°04' W 093°21'0 0.0
2018-Feb-02 04:30N 30°04' W 093°21'0 0.1
2018-Feb-02 04:00N 30°04' W 093°21'0 0.0
2018-Feb-02 03:30N 30°04' W 093°21'0 0.0
2018-Feb-02 03:00N 30°04' W 093°21'0 0.0
2018-Feb-02 02:29N 30°04' W 093°21'0 0.0
2018-Feb-02 02:00N 30°04' W 093°21'0 0.0
2018-Feb-02 01:30N 30°04' W 093°21'0 0.0
2018-Feb-02 01:00N 30°04' W 093°21'0 0.0
2018-Feb-02 00:30N 30°04' W 093°21'0 0.0
2018-Feb-02 00:00N 30°04' W 093°21'0 0.0
2018-Feb-01 23:29N 30°04' W 093°21'0 0.0
2018-Feb-01 23:00N 30°04' W 093°21'0 0.0
2018-Feb-01 22:00N 30°04' W 093°21'0 0.0
2018-Feb-01 21:30N 30°04' W 093°21'0 0.0
2018-Feb-01 19:30N 30°04' W 093°21'0 0.0
2018-Feb-01 19:00N 30°04' W 093°21'0 0.0
2018-Feb-01 18:30N 30°04' W 093°21'1 2.2
2018-Feb-01 18:00N 30°05' W 093°20'0 0.0
2018-Feb-01 17:30N 30°05' W 093°20'0 0.0
2018-Feb-01 17:00N 30°05' W 093°20'0 0.0
2018-Feb-01 16:30N 30°05' W 093°20'0 0.0
2018-Feb-01 16:00N 30°05' W 093°20'0 0.0
2018-Feb-01 15:30N 30°05' W 093°20'0 0.0
2018-Feb-01 15:00N 30°05' W 093°20'0 0.0
2018-Feb-01 13:30N 30°05' W 093°20'1 2.2
2018-Feb-01 13:00N 30°04' W 093°21'0 0.0
2018-Feb-01 12:30N 30°04' W 093°21'0 0.0
2018-Feb-01 12:00N 30°04' W 093°21'0 0.0
2018-Feb-01 11:00N 30°04' W 093°21'0 0.0
2018-Feb-01 10:30N 30°04' W 093°21'0 0.0
2018-Feb-01 10:00N 30°04' W 093°21'0 0.0
2018-Feb-01 09:30N 30°04' W 093°21'0 0.0
2018-Feb-01 08:59N 30°04' W 093°21'0 0.0
2018-Feb-01 08:30N 30°04' W 093°21'0 0.0
2018-Feb-01 07:30N 30°04' W 093°21'0 0.0
2018-Feb-01 07:00N 30°04' W 093°21'0 0.0
2018-Feb-01 06:30N 30°04' W 093°21'0 0.0
2018-Feb-01 06:00N 30°04' W 093°21'0 0.0
2018-Feb-01 05:28N 30°04' W 093°21'0 0.0
2018-Feb-01 05:00N 30°04' W 093°21'0 0.0
2018-Feb-01 04:30N 30°04' W 093°21'0 0.0
2018-Feb-01 03:59N 30°04' W 093°21'0 0.0
2018-Feb-01 03:00N 30°04' W 093°21'0 0.0
2018-Feb-01 02:29N 30°04' W 093°21'0 0.0
2018-Feb-01 02:00N 30°04' W 093°21'0 0.0
2018-Feb-01 01:29N 30°04' W 093°21'0 0.0
2018-Feb-01 01:00N 30°04' W 093°21'0 0.0
2018-Feb-01 00:30N 30°04' W 093°21'0 0.0
2018-Feb-01 00:00N 30°04' W 093°21'0 0.0
2018-Jan-31 23:00N 30°04' W 093°21'0 0.0
2018-Jan-31 22:30N 30°04' W 093°21'0 0.0
2018-Jan-31 21:00N 30°04' W 093°21'0 0.0
2018-Jan-31 20:30N 30°04' W 093°21'0 0.0
2018-Jan-31 20:00N 30°04' W 093°21'0 0.0
2018-Jan-31 19:30N 30°04' W 093°21'1 1.5
2018-Jan-31 19:01N 30°05' W 093°20'1 2.5
2018-Jan-31 18:30N 30°06' W 093°19'1 1.9
2018-Jan-31 18:00N 30°05' W 093°20'1 2.0
2018-Jan-31 17:30N 30°04' W 093°21'0 0.4
2018-Jan-31 17:00N 30°04' W 093°20'2 3.5
2018-Jan-31 16:30N 30°06' W 093°19'1 3.0
2018-Jan-31 16:00N 30°05' W 093°20'1 2.1
2018-Jan-31 15:30N 30°05' W 093°20'0 0.9
2018-Jan-31 15:00N 30°06' W 093°19'2 4.1
2018-Jan-31 14:30N 30°04' W 093°21'1 0.8
2018-Jan-31 13:00N 30°04' W 093°22'1 2.3
2018-Jan-31 12:30N 30°04' W 093°23'2 3.3
2018-Jan-31 12:00N 30°04' W 093°25'3 6.3
2018-Jan-31 11:30N 30°04' W 093°29'3 6.1
2018-Jan-31 11:00N 30°04' W 093°32'3 6.5
2018-Jan-31 10:30N 30°04' W 093°36'4 7.1
2018-Jan-31 10:00N 30°03' W 093°40'3 5.7
2018-Jan-31 09:30N 30°03' W 093°44'2 4.9
2018-Jan-31 09:00N 30°01' W 093°45'4 7.6
2018-Jan-31 08:29N 29°59' W 093°49'4 7.6
2018-Jan-31 08:00N 29°56' W 093°52'5 9.5
2018-Jan-31 07:30N 29°53' W 093°55'4 8.2
2018-Jan-31 07:00N 29°49' W 093°58'2 3.7
2018-Jan-31 06:30N 29°48' W 094°00'3 6.4
2018-Jan-31 06:00N 29°46' W 094°03'3 6.8
2018-Jan-31 05:30N 29°44' W 094°06'3 6.5
2018-Jan-31 05:00N 29°42' W 094°09'4 7.1
2018-Jan-31 04:30N 29°41' W 094°12'3 6.2
2018-Jan-31 04:00N 29°39' W 094°16'3 6.8
2018-Jan-31 03:30N 29°38' W 094°19'3 6.0
2018-Jan-31 03:00N 29°36' W 094°22'2 4.3
2018-Jan-31 02:30N 29°36' W 094°25'2 4.4
2018-Jan-31 01:58N 29°34' W 094°26'6 6.6
2018-Jan-31 01:07N 29°31' W 094°32'1 7.8
2018-Jan-31 00:59N 29°30' W 094°33'16 2.9
2018-Jan-30 19:19N 29°29' W 094°52'3 9.0
2018-Jan-30 19:00N 29°31' W 094°53'4 8.8
2018-Jan-30 18:30N 29°35' W 094°56'4 8.8
2018-Jan-30 18:00N 29°39' W 094°58'5 8.7
2018-Jan-30 17:29N 29°43' W 095°01'4 8.3
2018-Jan-30 16:57N 29°46' W 095°05'3 7.1
2018-Jan-30 16:29N 29°44' W 095°08'0 0.0
2018-Jan-30 14:48N 29°44' W 095°08'1 4.3
2018-Jan-30 14:30N 29°44' W 095°07'1 0.2
2018-Jan-30 07:41N 29°46' W 095°06'1 4.0
2018-Jan-30 07:26N 29°45' W 095°06'0 0.4
2018-Jan-30 06:59N 29°45' W 095°07'0 0.0
2018-Jan-30 06:23N 29°45' W 095°07'0 0.0
2018-Jan-30 05:59N 29°45' W 095°07'0 0.0
2018-Jan-30 05:30N 29°45' W 095°07'0 0.0
2018-Jan-30 05:00N 29°45' W 095°07'0 0.0
2018-Jan-30 04:30N 29°45' W 095°07'0 0.0
2018-Jan-30 04:00N 29°45' W 095°07'0 0.0
2018-Jan-30 03:25N 29°45' W 095°07'0 0.0
2018-Jan-30 02:58N 29°45' W 095°07'0 0.0
2018-Jan-30 02:30N 29°45' W 095°07'0 0.0
2018-Jan-30 01:58N 29°45' W 095°07'  

Dump ship's entire track history